
Distance (Route):
Temperature : 19.1°C
Humidity : 0%
Pressure : 0hPa| Receiver | Frames | First received | Last received |
|---|---|---|---|
| ARGUS2 | 294 | 2026-09-01 23:05:09 | 2026-09-02 01:04:06 |
| Receiver | Date | Latitude | Longitude | Direction | Speed | Altitude | Climb | Temperature | Humidity | Pressure | Voltage | Killtimer | Uptime | BKT | XDATA |
|---|---|---|---|---|---|---|---|---|---|---|---|---|---|---|---|
| ARGUS2 | 2026-09-02 01:04:06 | 27.68247 | -82.56746 | 238° | 22km/h | 1241m | -4.8m/s | 19.1°C | 0% | 0hPa | 0V | 00:00:00 | 00:00:00 | 00:00:00 | |
| ARGUS2 | 2026-09-02 01:02:55 | 27.68468 | -82.56420 | 230° | 18km/h | 1597m | -5.8m/s | 17.2°C | 0% | 0hPa | 0V | 00:00:00 | 00:00:00 | 00:00:00 | |
| ARGUS2 | 2026-09-02 01:02:35 | 27.68534 | -82.56337 | 232° | 20km/h | 1703m | -6.1m/s | 16.9°C | 0% | 0hPa | 0V | 00:00:00 | 00:00:00 | 00:00:00 | |
| ARGUS2 | 2026-09-02 01:02:14 | 27.68595 | -82.56258 | 224° | 16km/h | 1804m | -5.6m/s | 16.5°C | 0% | 0hPa | 0V | 00:00:00 | 00:00:00 | 00:00:00 | |
| ARGUS2 | 2026-09-02 00:59:21 | 27.69250 | -82.55382 | 240° | 29km/h | 2729m | -5.2m/s | 12.3°C | 0% | 0hPa | 0V | 00:00:00 | 00:00:00 | 00:00:00 | |
| ARGUS2 | 2026-09-02 00:58:59 | 27.69338 | -82.55244 | 232° | 29km/h | 2843m | -5.9m/s | 11.5°C | 0% | 0hPa | 0V | 00:00:00 | 00:00:00 | 00:00:00 | |
| ARGUS2 | 2026-09-02 00:58:39 | 27.69432 | -82.55122 | 229° | 27km/h | 2953m | -5.5m/s | 11.0°C | 0% | 0hPa | 0V | 00:00:00 | 00:00:00 | 00:00:00 | |
| ARGUS2 | 2026-09-02 00:58:19 | 27.69533 | -82.54997 | 230° | 29km/h | 3066m | -5.8m/s | 10.2°C | 0% | 0hPa | 0V | 00:00:00 | 00:00:00 | 00:00:00 | |
| ARGUS2 | 2026-09-02 00:57:58 | 27.69632 | -82.54868 | 233° | 31km/h | 3176m | -6.1m/s | 9.5°C | 0% | 0hPa | 0V | 00:00:00 | 00:00:00 | 00:00:00 | |
| ARGUS2 | 2026-09-02 00:57:37 | 27.69724 | -82.54741 | 231° | 26km/h | 3293m | -5.9m/s | 9.3°C | 0% | 0hPa | 0V | 00:00:00 | 00:00:00 | 00:00:00 | |
| ARGUS2 | 2026-09-02 00:57:18 | 27.69805 | -82.54632 | 231° | 26km/h | 3407m | -6.0m/s | 8.6°C | 0% | 0hPa | 0V | 00:00:00 | 00:00:00 | 00:00:00 | |
| ARGUS2 | 2026-09-02 00:56:56 | 27.69887 | -82.54519 | 231° | 24km/h | 3529m | -6.4m/s | 7.8°C | 0% | 0hPa | 0V | 00:00:00 | 00:00:00 | 00:00:00 | |
| ARGUS2 | 2026-09-02 00:56:36 | 27.69962 | -82.54416 | 233° | 22km/h | 3643m | -5.9m/s | 7.1°C | 0% | 0hPa | 0V | 00:00:00 | 00:00:00 | 00:00:00 | |
| ARGUS2 | 2026-09-02 00:56:16 | 27.70022 | -82.54306 | 248° | 22km/h | 3763m | -6.1m/s | 6.5°C | 0% | 0hPa | 0V | 00:00:00 | 00:00:00 | 00:00:00 | |
| ARGUS2 | 2026-09-02 00:55:55 | 27.70057 | -82.54196 | 250° | 22km/h | 3885m | -6.3m/s | 5.5°C | 0% | 0hPa | 0V | 00:00:00 | 00:00:00 | 00:00:00 | |
| ARGUS2 | 2026-09-02 00:55:35 | 27.70100 | -82.54076 | 244° | 22km/h | 4006m | -6.2m/s | 4.2°C | 0% | 0hPa | 0V | 00:00:00 | 00:00:00 | 00:00:00 | |
| ARGUS2 | 2026-09-02 00:55:14 | 27.70160 | -82.53969 | 240° | 20km/h | 4135m | -6.5m/s | 3.6°C | 0% | 0hPa | 0V | 00:00:00 | 00:00:00 | 00:00:00 | |
| ARGUS2 | 2026-09-02 00:54:54 | 27.70218 | -82.53892 | 222° | 15km/h | 4270m | -6.7m/s | 2.9°C | 0% | 0hPa | 0V | 00:00:00 | 00:00:00 | 00:00:00 | |
| ARGUS2 | 2026-09-02 00:54:33 | 27.70267 | -82.53838 | 233° | 13km/h | 4405m | -6.8m/s | 2.1°C | 0% | 0hPa | 0V | 00:00:00 | 00:00:00 | 00:00:00 | |
| ARGUS2 | 2026-09-02 00:53:52 | 27.70332 | -82.53699 | 232° | 18km/h | 4661m | -6.8m/s | 1.0°C | 0% | 0hPa | 0V | 00:00:00 | 00:00:00 | 00:00:00 | |
| ARGUS2 | 2026-09-02 00:52:34 | 27.70510 | -82.53419 | 237° | 13km/h | 5165m | -6.1m/s | -2.4°C | 0% | 0hPa | 0V | 00:00:00 | 00:00:00 | 00:00:00 | |
| ARGUS2 | 2026-09-02 00:52:13 | 27.70548 | -82.53354 | 238° | 13km/h | 5298m | -6.5m/s | -3.1°C | 0% | 0hPa | 0V | 00:00:00 | 00:00:00 | 00:00:00 | |
| ARGUS2 | 2026-09-02 00:51:53 | 27.70586 | -82.53283 | 241° | 15km/h | 5430m | -6.8m/s | -3.9°C | 0% | 0hPa | 0V | 00:00:00 | 00:00:00 | 00:00:00 | |
| ARGUS2 | 2026-09-02 00:51:32 | 27.70626 | -82.53216 | 226° | 11km/h | 5563m | -6.1m/s | -4.8°C | 0% | 0hPa | 0V | 00:00:00 | 00:00:00 | 00:00:00 | |
| ARGUS2 | 2026-09-02 00:51:11 | 27.70673 | -82.53176 | 215° | 13km/h | 5691m | -6.3m/s | -5.4°C | 0% | 0hPa | 0V | 00:00:00 | 00:00:00 | 00:00:00 | |
| ARGUS2 | 2026-09-02 00:50:51 | 27.70721 | -82.53132 | 228° | 11km/h | 5827m | -6.7m/s | -6.1°C | 0% | 0hPa | 0V | 00:00:00 | 00:00:00 | 00:00:00 | |
| ARGUS2 | 2026-09-02 00:50:30 | 27.70756 | -82.53087 | 235° | 11km/h | 5955m | -6.9m/s | -6.9°C | 0% | 0hPa | 0V | 00:00:00 | 00:00:00 | 00:00:00 | |
| ARGUS2 | 2026-09-02 00:50:09 | 27.70808 | -82.53056 | 203° | 15km/h | 6142m | -10.8m/s | -7.7°C | 0% | 0hPa | 0V | 00:00:00 | 00:00:00 | 00:00:00 | |
| ARGUS2 | 2026-09-02 00:49:49 | 27.70903 | -82.53024 | 183° | 15km/h | 6319m | -6.5m/s | -8.5°C | 0% | 0hPa | 0V | 00:00:00 | 00:00:00 | 00:00:00 | |
| ARGUS2 | 2026-09-02 00:49:29 | 27.70986 | -82.53044 | 161° | 18km/h | 6484m | -7.4m/s | -9.5°C | 0% | 0hPa | 0V | 00:00:00 | 00:00:00 | 00:00:00 | |
| ARGUS2 | 2026-09-02 00:49:07 | 27.71080 | -82.53114 | 144° | 24km/h | 6697m | -9.2m/s | -10.6°C | 0% | 0hPa | 0V | 00:00:00 | 00:00:00 | 00:00:00 | |
| ARGUS2 | 2026-09-02 00:48:46 | 27.71198 | -82.53225 | 133° | 29km/h | 6925m | -9.2m/s | -12.0°C | 0% | 0hPa | 0V | 00:00:00 | 00:00:00 | 00:00:00 | |
| ARGUS2 | 2026-09-02 00:48:25 | 27.71299 | -82.53359 | 129° | 29km/h | 7102m | -8.4m/s | -13.1°C | 0% | 0hPa | 0V | 00:00:00 | 00:00:00 | 00:00:00 | |
| ARGUS2 | 2026-09-02 00:48:05 | 27.71405 | -82.53503 | 130° | 29km/h | 7281m | -8.5m/s | -14.1°C | 0% | 0hPa | 0V | 00:00:00 | 00:00:00 | 00:00:00 | |
| ARGUS2 | 2026-09-02 00:47:44 | 27.71498 | -82.53635 | 129° | 29km/h | 7454m | -8.4m/s | -15.1°C | 0% | 0hPa | 0V | 00:00:00 | 00:00:00 | 00:00:00 | |
| ARGUS2 | 2026-09-02 00:47:24 | 27.71584 | -82.53767 | 129° | 26km/h | 7640m | -9.1m/s | -16.4°C | 0% | 0hPa | 0V | 00:00:00 | 00:00:00 | 00:00:00 | |
| ARGUS2 | 2026-09-02 00:47:04 | 27.71664 | -82.53880 | 130° | 24km/h | 7823m | -9.2m/s | -17.5°C | 0% | 0hPa | 0V | 00:00:00 | 00:00:00 | 00:00:00 | |
| ARGUS2 | 2026-09-02 00:46:43 | 27.71733 | -82.53988 | 125° | 20km/h | 8013m | -8.6m/s | -18.7°C | 0% | 0hPa | 0V | 00:00:00 | 00:00:00 | 00:00:00 | |
| ARGUS2 | 2026-09-02 00:46:22 | 27.71787 | -82.54059 | 143° | 15km/h | 8192m | -9.6m/s | -19.9°C | 0% | 0hPa | 0V | 00:00:00 | 00:00:00 | 00:00:00 | |
| ARGUS2 | 2026-09-02 00:45:41 | 27.71932 | -82.54134 | 174° | 22km/h | 8555m | -9.8m/s | -22.5°C | 0% | 0hPa | 0V | 00:00:00 | 00:00:00 | 00:00:00 | |
| ARGUS2 | 2026-09-02 00:45:21 | 27.72073 | -82.54128 | 189° | 27km/h | 8739m | -10.6m/s | -23.8°C | 0% | 0hPa | 0V | 00:00:00 | 00:00:00 | 00:00:00 | |
| ARGUS2 | 2026-09-02 00:45:00 | 27.72198 | -82.54086 | 206° | 22km/h | 8947m | -9.5m/s | -25.1°C | 0% | 0hPa | 0V | 00:00:00 | 00:00:00 | 00:00:00 | |
| ARGUS2 | 2026-09-02 00:44:39 | 27.72292 | -82.54040 | 207° | 16km/h | 9162m | -13.2m/s | -26.5°C | 0% | 0hPa | 0V | 00:00:00 | 00:00:00 | 00:00:00 | |
| ARGUS2 | 2026-09-02 00:43:58 | 27.72419 | -82.53930 | 236° | 16km/h | 9620m | -13.6m/s | -29.7°C | 0% | 0hPa | 0V | 00:00:00 | 00:00:00 | 00:00:00 | |
| ARGUS2 | 2026-09-02 00:43:37 | 27.72480 | -82.53863 | 212° | 16km/h | 9820m | -8.0m/s | -31.3°C | 0% | 0hPa | 0V | 00:00:00 | 00:00:00 | 00:00:00 | |
| ARGUS2 | 2026-09-02 00:42:57 | 27.72551 | -82.53716 | 276° | 7km/h | 10181m | -8.8m/s | -33.6°C | 0% | 0hPa | 0V | 00:00:00 | 00:00:00 | 00:00:00 | |
| ARGUS2 | 2026-09-02 00:42:36 | 27.72543 | -82.53682 | 289° | 9km/h | 10358m | -8.7m/s | -34.9°C | 0% | 0hPa | 0V | 00:00:00 | 00:00:00 | 00:00:00 | |
| ARGUS2 | 2026-09-02 00:42:15 | 27.72535 | -82.53620 | 266° | 11km/h | 10549m | -9.3m/s | -36.4°C | 0% | 0hPa | 0V | 00:00:00 | 00:00:00 | 00:00:00 | |
| ARGUS2 | 2026-09-02 00:41:55 | 27.72536 | -82.53558 | 279° | 15km/h | 10734m | -9.8m/s | -37.9°C | 0% | 0hPa | 0V | 00:00:00 | 00:00:00 | 00:00:00 | |
| ARGUS2 | 2026-09-02 00:41:35 | 27.72499 | -82.53505 | 331° | 15km/h | 10928m | -9.8m/s | -39.1°C | 0% | 0hPa | 0V | 00:00:00 | 00:00:00 | 00:00:00 | |
| ARGUS2 | 2026-09-02 00:41:14 | 27.72439 | -82.53469 | 334° | 13km/h | 11118m | -9.6m/s | -40.5°C | 0% | 0hPa | 0V | 00:00:00 | 00:00:00 | 00:00:00 | |
| ARGUS2 | 2026-09-02 00:40:54 | 27.72383 | -82.53436 | 338° | 13km/h | 11322m | -9.9m/s | -42.2°C | 0% | 0hPa | 0V | 00:00:00 | 00:00:00 | 00:00:00 | |
| ARGUS2 | 2026-09-02 00:40:33 | 27.72335 | -82.53410 | 343° | 11km/h | 11528m | -9.7m/s | -44.0°C | 0% | 0hPa | 0V | 00:00:00 | 00:00:00 | 00:00:00 | |
| ARGUS2 | 2026-09-02 00:40:13 | 27.72262 | -82.53379 | 336° | 13km/h | 11718m | -8.5m/s | -45.6°C | 0% | 0hPa | 0V | 00:00:00 | 00:00:00 | 00:00:00 | |
| ARGUS2 | 2026-09-02 00:39:51 | 27.72182 | -82.53353 | 350° | 15km/h | 11932m | -10.7m/s | -47.3°C | 0% | 0hPa | 0V | 00:00:00 | 00:00:00 | 00:00:00 | |
| ARGUS2 | 2026-09-02 00:39:31 | 27.72102 | -82.53340 | 2° | 15km/h | 12129m | -10.8m/s | -49.0°C | 0% | 0hPa | 0V | 00:00:00 | 00:00:00 | 00:00:00 | |
| ARGUS2 | 2026-09-02 00:39:11 | 27.72023 | -82.53349 | 28° | 16km/h | 12371m | -11.6m/s | -50.8°C | 0% | 0hPa | 0V | 00:00:00 | 00:00:00 | 00:00:00 | |
| ARGUS2 | 2026-09-02 00:38:50 | 27.71944 | -82.53418 | 42° | 24km/h | 12558m | -9.6m/s | -52.4°C | 0% | 0hPa | 0V | 00:00:00 | 00:00:00 | 00:00:00 | |
| ARGUS2 | 2026-09-02 00:38:29 | 27.71853 | -82.53492 | 41° | 24km/h | 12751m | -8.5m/s | -54.1°C | 0% | 0hPa | 0V | 00:00:00 | 00:00:00 | 00:00:00 | |
| ARGUS2 | 2026-09-02 00:38:09 | 27.71764 | -82.53565 | 42° | 15km/h | 12938m | -9.3m/s | -55.7°C | 0% | 0hPa | 0V | 00:00:00 | 00:00:00 | 00:00:00 | |
| ARGUS2 | 2026-09-02 00:37:48 | 27.71673 | -82.53629 | 28° | 22km/h | 13131m | -8.7m/s | -57.3°C | 0% | 0hPa | 0V | 00:00:00 | 00:00:00 | 00:00:00 | |
| ARGUS2 | 2026-09-02 00:37:28 | 27.71569 | -82.53680 | 21° | 22km/h | 13297m | -7.3m/s | -58.7°C | 0% | 0hPa | 0V | 00:00:00 | 00:00:00 | 00:00:00 | |
| ARGUS2 | 2026-09-02 00:37:08 | 27.71450 | -82.53723 | 15° | 24km/h | 13442m | -6.5m/s | -59.9°C | 0% | 0hPa | 0V | 00:00:00 | 00:00:00 | 00:00:00 | |
| ARGUS2 | 2026-09-02 00:36:47 | 27.71342 | -82.53764 | 17° | 20km/h | 13572m | -6.6m/s | -61.1°C | 0% | 0hPa | 0V | 00:00:00 | 00:00:00 | 00:00:00 | |
| ARGUS2 | 2026-09-02 00:36:27 | 27.71239 | -82.53814 | 27° | 24km/h | 13743m | -8.8m/s | -62.7°C | 0% | 0hPa | 0V | 00:00:00 | 00:00:00 | 00:00:00 | |
| ARGUS2 | 2026-09-02 00:36:06 | 27.71136 | -82.53863 | 30° | 22km/h | 13914m | -7.5m/s | -64.2°C | 0% | 0hPa | 0V | 00:00:00 | 00:00:00 | 00:00:00 | |
| ARGUS2 | 2026-09-02 00:35:46 | 27.71037 | -82.53934 | 34° | 18km/h | 14072m | -7.1m/s | -65.6°C | 0% | 0hPa | 0V | 00:00:00 | 00:00:00 | 00:00:00 | |
| ARGUS2 | 2026-09-02 00:35:26 | 27.70959 | -82.53992 | 31° | 18km/h | 14209m | -6.3m/s | -66.7°C | 0% | 0hPa | 0V | 00:00:00 | 00:00:00 | 00:00:00 | |
| ARGUS2 | 2026-09-02 00:35:05 | 27.70863 | -82.54043 | 19° | 18km/h | 14346m | -6.1m/s | -68.0°C | 0% | 0hPa | 0V | 00:00:00 | 00:00:00 | 00:00:00 | |
| ARGUS2 | 2026-09-02 00:34:43 | 27.70759 | -82.54082 | 9° | 26km/h | 14478m | -6.5m/s | -69.0°C | 0% | 0hPa | 0V | 00:00:00 | 00:00:00 | 00:00:00 | |
| ARGUS2 | 2026-09-02 00:34:23 | 27.70627 | -82.54103 | 5° | 27km/h | 14610m | -6.4m/s | -69.9°C | 0% | 0hPa | 0V | 00:00:00 | 00:00:00 | 00:00:00 | |
| ARGUS2 | 2026-09-02 00:34:02 | 27.70483 | -82.54108 | 4° | 26km/h | 14753m | -7.2m/s | -70.6°C | 0% | 0hPa | 0V | 00:00:00 | 00:00:00 | 00:00:00 | |
| ARGUS2 | 2026-09-02 00:33:42 | 27.70365 | -82.54113 | 11° | 15km/h | 14889m | -6.4m/s | -70.5°C | 0% | 0hPa | 0V | 00:00:00 | 00:00:00 | 00:00:00 | |
| ARGUS2 | 2026-09-02 00:33:21 | 27.70287 | -82.54131 | 26° | 11km/h | 15023m | -6.7m/s | -70.8°C | 0% | 0hPa | 0V | 00:00:00 | 00:00:00 | 00:00:00 | |
| ARGUS2 | 2026-09-02 00:33:01 | 27.70267 | -82.54140 | 0° | 0km/h | 15157m | -7.0m/s | -70.9°C | 0% | 0hPa | 0V | 00:00:00 | 00:00:00 | 00:00:00 | |
| ARGUS2 | 2026-09-02 00:32:41 | 27.70260 | -82.54111 | 326° | 15km/h | 15299m | -6.7m/s | -68.2°C | 0% | 0hPa | 0V | 00:00:00 | 00:00:00 | 00:00:00 | |
| ARGUS2 | 2026-09-02 00:32:20 | 27.70213 | -82.54102 | 4° | 9km/h | 15437m | -6.5m/s | -66.8°C | 0% | 0hPa | 0V | 00:00:00 | 00:00:00 | 00:00:00 | |
| ARGUS2 | 2026-09-02 00:32:00 | 27.70164 | -82.54101 | 7° | 5km/h | 15582m | -7.1m/s | -67.0°C | 0% | 0hPa | 0V | 00:00:00 | 00:00:00 | 00:00:00 | |
| ARGUS2 | 2026-09-02 00:31:39 | 27.70131 | -82.54121 | 66° | 4km/h | 15733m | -7.4m/s | -66.8°C | 0% | 0hPa | 0V | 00:00:00 | 00:00:00 | 00:00:00 | |
| ARGUS2 | 2026-09-02 00:31:19 | 27.70141 | -82.54148 | 138° | 11km/h | 15895m | -7.2m/s | -65.4°C | 0% | 0hPa | 0V | 00:00:00 | 00:00:00 | 00:00:00 | |
| ARGUS2 | 2026-09-02 00:30:58 | 27.70169 | -82.54162 | 192° | 5km/h | 16012m | -6.1m/s | -65.7°C | 0% | 0hPa | 0V | 00:00:00 | 00:00:00 | 00:00:00 | |
| ARGUS2 | 2026-09-02 00:30:38 | 27.70183 | -82.54169 | 327° | 4km/h | 16156m | -7.4m/s | -66.4°C | 0% | 0hPa | 0V | 00:00:00 | 00:00:00 | 00:00:00 | |
| ARGUS2 | 2026-09-02 00:30:18 | 27.70180 | -82.54128 | 271° | 13km/h | 16308m | -7.9m/s | -66.2°C | 0% | 0hPa | 0V | 00:00:00 | 00:00:00 | 00:00:00 | |
| ARGUS2 | 2026-09-02 00:29:57 | 27.70168 | -82.54054 | 291° | 9km/h | 16481m | -8.5m/s | -65.3°C | 0% | 0hPa | 0V | 00:00:00 | 00:00:00 | 00:00:00 | |
| ARGUS2 | 2026-09-02 00:29:35 | 27.70160 | -82.54018 | 241° | 5km/h | 16653m | -8.2m/s | -66.5°C | 0% | 0hPa | 0V | 00:00:00 | 00:00:00 | 00:00:00 | |
| ARGUS2 | 2026-09-02 00:29:15 | 27.70198 | -82.53993 | 207° | 15km/h | 16820m | -8.3m/s | -67.5°C | 0% | 0hPa | 0V | 00:00:00 | 00:00:00 | 00:00:00 | |
| ARGUS2 | 2026-09-02 00:28:54 | 27.70270 | -82.53948 | 206° | 16km/h | 16997m | -8.3m/s | -68.1°C | 0% | 0hPa | 0V | 00:00:00 | 00:00:00 | 00:00:00 | |
| ARGUS2 | 2026-09-02 00:28:34 | 27.70346 | -82.53929 | 178° | 16km/h | 17180m | -9.7m/s | -69.3°C | 0% | 0hPa | 0V | 00:00:00 | 00:00:00 | 00:00:00 | |
| ARGUS2 | 2026-09-02 00:28:13 | 27.70414 | -82.53919 | 202° | 11km/h | 17374m | -9.3m/s | -69.1°C | 0% | 0hPa | 0V | 00:00:00 | 00:00:00 | 00:00:00 | |
| ARGUS2 | 2026-09-02 00:27:53 | 27.70501 | -82.53861 | 220° | 27km/h | 17554m | -8.4m/s | -69.1°C | 0% | 0hPa | 0V | 00:00:00 | 00:00:00 | 00:00:00 | |
| ARGUS2 | 2026-09-02 00:27:33 | 27.70632 | -82.53741 | 218° | 27km/h | 17724m | -8.1m/s | -69.3°C | 0% | 0hPa | 0V | 00:00:00 | 00:00:00 | 00:00:00 | |
| ARGUS2 | 2026-09-02 00:27:12 | 27.70726 | -82.53687 | 192° | 20km/h | 17890m | -8.0m/s | -68.3°C | 0% | 0hPa | 0V | 00:00:00 | 00:00:00 | 00:00:00 | |
| ARGUS2 | 2026-09-02 00:26:52 | 27.70827 | -82.53640 | 196° | 27km/h | 18066m | -12.2m/s | -67.9°C | 0% | 0hPa | 0V | 00:00:00 | 00:00:00 | 00:00:00 | |
| ARGUS2 | 2026-09-02 00:26:11 | 27.71012 | -82.53506 | 227° | 13km/h | 18423m | -9.9m/s | -64.7°C | 0% | 0hPa | 0V | 00:00:00 | 00:00:00 | 00:00:00 | |
| ARGUS2 | 2026-09-02 00:25:50 | 27.71059 | -82.53442 | 219° | 24km/h | 18590m | -8.9m/s | -62.6°C | 0% | 0hPa | 0V | 00:00:00 | 00:00:00 | 00:00:00 | |
| ARGUS2 | 2026-09-02 00:25:30 | 27.71115 | -82.53297 | 257° | 27km/h | 18771m | -8.3m/s | -61.6°C | 0% | 0hPa | 0V | 00:00:00 | 00:00:00 | 00:00:00 | |
| ARGUS2 | 2026-09-02 00:25:09 | 27.71125 | -82.53159 | 273° | 22km/h | 18908m | -6.1m/s | -62.6°C | 0% | 0hPa | 0V | 00:00:00 | 00:00:00 | 00:00:00 | |
| ARGUS2 | 2026-09-02 00:24:49 | 27.71107 | -82.53036 | 288° | 26km/h | 19042m | -7.7m/s | -62.5°C | 0% | 0hPa | 0V | 00:00:00 | 00:00:00 | 00:00:00 | |
| ARGUS2 | 2026-09-02 00:24:28 | 27.71087 | -82.52893 | 271° | 26km/h | 19172m | -5.9m/s | -62.7°C | 0% | 0hPa | 0V | 00:00:00 | 00:00:00 | 00:00:00 | |
| ARGUS2 | 2026-09-02 00:24:08 | 27.71075 | -82.52728 | 276° | 31km/h | 19306m | -7.0m/s | -63.0°C | 0% | 0hPa | 0V | 00:00:00 | 00:00:00 | 00:00:00 | |
| ARGUS2 | 2026-09-02 00:23:46 | 27.71061 | -82.52563 | 284° | 27km/h | 19451m | -7.3m/s | -63.0°C | 0% | 0hPa | 0V | 00:00:00 | 00:00:00 | 00:00:00 | |
| ARGUS2 | 2026-09-02 00:23:26 | 27.71043 | -82.52411 | 276° | 26km/h | 19598m | -8.1m/s | -63.4°C | 0% | 0hPa | 0V | 00:00:00 | 00:00:00 | 00:00:00 | |
| ARGUS2 | 2026-09-02 00:23:05 | 27.71049 | -82.52268 | 304° | 20km/h | 19794m | -9.4m/s | -63.2°C | 0% | 0hPa | 0V | 00:00:00 | 00:00:00 | 00:00:00 | |
| ARGUS2 | 2026-09-02 00:22:24 | 27.71144 | -82.51996 | 237° | 44km/h | 20203m | -8.7m/s | -61.6°C | 0% | 0hPa | 0V | 00:00:00 | 00:00:00 | 00:00:00 | |
| ARGUS2 | 2026-09-02 00:22:04 | 27.71194 | -82.51801 | 255° | 37km/h | 20376m | -8.4m/s | -61.2°C | 0% | 0hPa | 0V | 00:00:00 | 00:00:00 | 00:00:00 | |
| ARGUS2 | 2026-09-02 00:21:44 | 27.71208 | -82.51622 | 281° | 29km/h | 20535m | -5.7m/s | -61.5°C | 0% | 0hPa | 0V | 00:00:00 | 00:00:00 | 00:00:00 | |
| ARGUS2 | 2026-09-02 00:21:23 | 27.71165 | -82.51503 | 267° | 15km/h | 20670m | -7.6m/s | -61.6°C | 0% | 0hPa | 0V | 00:00:00 | 00:00:00 | 00:00:00 | |
| ARGUS2 | 2026-09-02 00:21:02 | 27.71149 | -82.51443 | 261° | 22km/h | 20809m | -6.9m/s | -60.5°C | 0% | 0hPa | 0V | 00:00:00 | 00:00:00 | 00:00:00 | |
| ARGUS2 | 2026-09-02 00:20:42 | 27.71138 | -82.51369 | 235° | 27km/h | 20946m | -9.3m/s | -60.7°C | 0% | 0hPa | 0V | 00:00:00 | 00:00:00 | 00:00:00 | |
| ARGUS2 | 2026-09-02 00:20:22 | 27.71103 | -82.51242 | 320° | 31km/h | 21078m | -7.1m/s | -61.0°C | 0% | 0hPa | 0V | 00:00:00 | 00:00:00 | 00:00:00 | |
| ARGUS2 | 2026-09-02 00:20:01 | 27.71075 | -82.51147 | 270° | 18km/h | 21238m | -7.5m/s | -61.3°C | 0% | 0hPa | 0V | 00:00:00 | 00:00:00 | 00:00:00 | |
| ARGUS2 | 2026-09-02 00:19:40 | 27.71082 | -82.51069 | 237° | 9km/h | 21387m | -7.4m/s | -62.0°C | 0% | 0hPa | 0V | 00:00:00 | 00:00:00 | 00:00:00 | |
| ARGUS2 | 2026-09-02 00:19:20 | 27.71127 | -82.51026 | 153° | 13km/h | 21548m | -10.1m/s | -62.2°C | 0% | 0hPa | 0V | 00:00:00 | 00:00:00 | 00:00:00 | |
| ARGUS2 | 2026-09-02 00:19:00 | 27.71169 | -82.50936 | 298° | 18km/h | 21724m | -8.5m/s | -61.2°C | 0% | 0hPa | 0V | 00:00:00 | 00:00:00 | 00:00:00 | |
| ARGUS2 | 2026-09-02 00:18:38 | 27.71106 | -82.50801 | 313° | 22km/h | 21996m | -15.9m/s | -61.1°C | 0% | 0hPa | 0V | 00:00:00 | 00:00:00 | 00:00:00 | |
| ARGUS2 | 2026-09-02 00:18:18 | 27.71150 | -82.50719 | 336° | 26km/h | 22261m | -9.1m/s | -60.5°C | 0% | 0hPa | 0V | 00:00:00 | 00:00:00 | 00:00:00 | |
| ARGUS2 | 2026-09-02 00:17:57 | 27.71152 | -82.50675 | 319° | 24km/h | 22448m | -8.1m/s | -61.1°C | 0% | 0hPa | 0V | 00:00:00 | 00:00:00 | 00:00:00 | |
| ARGUS2 | 2026-09-02 00:17:38 | 27.71133 | -82.50546 | 173° | 9km/h | 22621m | -8.8m/s | -60.7°C | 0% | 0hPa | 0V | 00:00:00 | 00:00:00 | 00:00:00 | |
| ARGUS2 | 2026-09-02 00:16:56 | 27.71227 | -82.50240 | 262° | 53km/h | 23006m | -12.8m/s | -59.5°C | 0% | 0hPa | 0V | 00:00:00 | 00:00:00 | 00:00:00 | |
| ARGUS2 | 2026-09-02 00:16:36 | 27.71373 | -82.50023 | 223° | 42km/h | 23199m | -15.5m/s | -59.1°C | 0% | 0hPa | 0V | 00:00:00 | 00:00:00 | 00:00:00 | |
| ARGUS2 | 2026-09-02 00:15:54 | 27.71834 | -82.49576 | 221° | 42km/h | 23154m | 9.6m/s | -58.8°C | 0% | 0hPa | 0V | 00:00:00 | 00:00:00 | 00:00:00 | |
| ARGUS2 | 2026-09-02 00:15:34 | 27.71956 | -82.49414 | 277° | 33km/h | 23020m | 7.1m/s | -58.4°C | 0% | 0hPa | 0V | 00:00:00 | 00:00:00 | 00:00:00 | |
| ARGUS2 | 2026-09-02 00:15:13 | 27.72039 | -82.49190 | 253° | 51km/h | 22876m | 6.4m/s | -58.9°C | 0% | 0hPa | 0V | 00:00:00 | 00:00:00 | 00:00:00 | |
| ARGUS2 | 2026-09-02 00:14:53 | 27.72114 | -82.49030 | 242° | 37km/h | 22740m | 7.2m/s | -59.2°C | 0% | 0hPa | 0V | 00:00:00 | 00:00:00 | 00:00:00 | |
| ARGUS2 | 2026-09-02 00:14:33 | 27.72179 | -82.48936 | 277° | 20km/h | 22604m | 7.3m/s | -59.2°C | 0% | 0hPa | 0V | 00:00:00 | 00:00:00 | 00:00:00 | |
| ARGUS2 | 2026-09-02 00:14:12 | 27.72198 | -82.48833 | 242° | 31km/h | 22491m | 4.4m/s | -58.9°C | 0% | 0hPa | 0V | 00:00:00 | 00:00:00 | 00:00:00 | |
| ARGUS2 | 2026-09-02 00:13:52 | 27.72210 | -82.48710 | 293° | 13km/h | 22379m | 4.9m/s | -59.5°C | 0% | 0hPa | 0V | 00:00:00 | 00:00:00 | 00:00:00 | |
| ARGUS2 | 2026-09-02 00:13:30 | 27.72189 | -82.48613 | 300° | 2km/h | 22278m | 5.4m/s | -59.8°C | 0% | 0hPa | 0V | 00:00:00 | 00:00:00 | 00:00:00 | |
| ARGUS2 | 2026-09-02 00:13:10 | 27.72186 | -82.48567 | 256° | 11km/h | 22195m | 2.6m/s | -59.7°C | 0% | 0hPa | 0V | 00:00:00 | 00:00:00 | 00:00:00 | |
| ARGUS2 | 2026-09-02 00:12:29 | 27.72262 | -82.48373 | 253° | 24km/h | 22020m | 3.3m/s | -61.4°C | 0% | 0hPa | 0V | 00:00:00 | 00:00:00 | 00:00:00 | |
| ARGUS2 | 2026-09-02 00:12:09 | 27.72248 | -82.48225 | 298° | 40km/h | 21931m | 6.9m/s | -62.0°C | 0% | 0hPa | 0V | 00:00:00 | 00:00:00 | 00:00:00 | |
| ARGUS2 | 2026-09-02 00:11:48 | 27.72193 | -82.48073 | 256° | 37km/h | 21838m | 5.1m/s | -61.8°C | 0% | 0hPa | 0V | 00:00:00 | 00:00:00 | 00:00:00 | |
| ARGUS2 | 2026-09-02 00:11:27 | 27.72195 | -82.47908 | 259° | 35km/h | 21737m | 2.6m/s | -61.9°C | 0% | 0hPa | 0V | 00:00:00 | 00:00:00 | 00:00:00 | |
| ARGUS2 | 2026-09-02 00:11:07 | 27.72246 | -82.47820 | 173° | 27km/h | 21634m | 6.1m/s | -62.4°C | 0% | 0hPa | 0V | 00:00:00 | 00:00:00 | 00:00:00 | |
| ARGUS2 | 2026-09-02 00:10:47 | 27.72333 | -82.47723 | 265° | 40km/h | 21519m | 4.6m/s | -62.5°C | 0% | 0hPa | 0V | 00:00:00 | 00:00:00 | 00:00:00 | |
| ARGUS2 | 2026-09-02 00:10:26 | 27.72371 | -82.47648 | 237° | 15km/h | 21400m | 6.2m/s | -62.1°C | 0% | 0hPa | 0V | 00:00:00 | 00:00:00 | 00:00:00 | |
| ARGUS2 | 2026-09-02 00:10:06 | 27.72377 | -82.47500 | 318° | 26km/h | 21268m | 6.7m/s | -61.4°C | 0% | 0hPa | 0V | 00:00:00 | 00:00:00 | 00:00:00 | |
| ARGUS2 | 2026-09-02 00:09:45 | 27.72364 | -82.47366 | 291° | 38km/h | 21129m | 7.3m/s | -60.7°C | 0% | 0hPa | 0V | 00:00:00 | 00:00:00 | 00:00:00 | |
| ARGUS2 | 2026-09-02 00:09:28 | 27.72315 | -82.47218 | 281° | 37km/h | 20986m | 6.5m/s | -60.0°C | 0% | 0hPa | 0V | 00:00:00 | 00:00:00 | 00:00:00 | |
| ARGUS2 | 2026-09-02 00:09:04 | 27.72262 | -82.47063 | 277° | 38km/h | 20843m | 8.0m/s | -59.3°C | 0% | 0hPa | 0V | 00:00:00 | 00:00:00 | 00:00:00 | |
| ARGUS2 | 2026-09-02 00:08:44 | 27.72235 | -82.46915 | 310° | 26km/h | 20710m | 4.5m/s | -58.5°C | 0% | 0hPa | 0V | 00:00:00 | 00:00:00 | 00:00:00 | |
| ARGUS2 | 2026-09-02 00:08:23 | 27.72205 | -82.46785 | 255° | 27km/h | 20585m | 5.9m/s | -57.8°C | 0% | 0hPa | 0V | 00:00:00 | 00:00:00 | 00:00:00 | |
| ARGUS2 | 2026-09-02 00:08:02 | 27.72166 | -82.46693 | 314° | 15km/h | 20484m | 4.9m/s | -57.7°C | 0% | 0hPa | 0V | 00:00:00 | 00:00:00 | 00:00:00 | |
| ARGUS2 | 2026-09-02 00:07:41 | 27.72098 | -82.46596 | 301° | 29km/h | 20397m | 4.1m/s | -57.8°C | 0% | 0hPa | 0V | 00:00:00 | 00:00:00 | 00:00:00 | |
| ARGUS2 | 2026-09-02 00:07:22 | 27.72073 | -82.46490 | 315° | 11km/h | 20324m | 3.8m/s | -58.5°C | 0% | 0hPa | 0V | 00:00:00 | 00:00:00 | 00:00:00 | |
| ARGUS2 | 2026-09-02 00:07:00 | 27.72029 | -82.46362 | 266° | 37km/h | 20253m | 3.3m/s | -59.5°C | 0% | 0hPa | 0V | 00:00:00 | 00:00:00 | 00:00:00 | |
| ARGUS2 | 2026-09-02 00:06:40 | 27.72046 | -82.46163 | 272° | 33km/h | 20187m | 3.7m/s | -59.8°C | 0% | 0hPa | 0V | 00:00:00 | 00:00:00 | 00:00:00 | |
| ARGUS2 | 2026-09-02 00:06:20 | 27.72145 | -82.45934 | 224° | 49km/h | 20109m | 4.3m/s | -62.2°C | 0% | 0hPa | 0V | 00:00:00 | 00:00:00 | 00:00:00 | |
| ARGUS2 | 2026-09-02 00:05:59 | 27.72227 | -82.45762 | 269° | 49km/h | 20006m | 6.7m/s | -63.2°C | 0% | 0hPa | 0V | 00:00:00 | 00:00:00 | 00:00:00 | |
| ARGUS2 | 2026-09-02 00:05:39 | 27.72199 | -82.45576 | 272° | 44km/h | 19890m | 5.5m/s | -63.2°C | 0% | 0hPa | 0V | 00:00:00 | 00:00:00 | 00:00:00 | |
| ARGUS2 | 2026-09-02 00:05:18 | 27.72184 | -82.45403 | 300° | 40km/h | 19762m | 7.8m/s | -63.3°C | 0% | 0hPa | 0V | 00:00:00 | 00:00:00 | 00:00:00 | |
| ARGUS2 | 2026-09-02 00:04:58 | 27.72216 | -82.45229 | 245° | 44km/h | 19626m | 5.1m/s | -63.4°C | 0% | 0hPa | 0V | 00:00:00 | 00:00:00 | 00:00:00 | |
| ARGUS2 | 2026-09-02 00:04:38 | 27.72280 | -82.45098 | 288° | 35km/h | 19491m | 7.8m/s | -63.0°C | 0% | 0hPa | 0V | 00:00:00 | 00:00:00 | 00:00:00 | |
| ARGUS2 | 2026-09-02 00:04:17 | 27.72317 | -82.44918 | 219° | 37km/h | 19365m | 4.4m/s | -62.7°C | 0% | 0hPa | 0V | 00:00:00 | 00:00:00 | 00:00:00 | |
| ARGUS2 | 2026-09-02 00:04:02 | 27.72360 | -82.44759 | 246° | 40km/h | 19251m | 4.8m/s | -62.5°C | 0% | 0hPa | 0V | 00:00:00 | 00:00:00 | 00:00:00 | |
| ARGUS2 | 2026-09-02 00:03:38 | 27.72422 | -82.44601 | 180° | 26km/h | 19142m | 5.4m/s | -62.6°C | 0% | 0hPa | 0V | 00:00:00 | 00:00:00 | 00:00:00 | |
| ARGUS2 | 2026-09-02 00:03:22 | 27.72459 | -82.44466 | 263° | 20km/h | 19038m | 4.5m/s | -63.7°C | 0% | 0hPa | 0V | 00:00:00 | 00:00:00 | 00:00:00 | |
| ARGUS2 | 2026-09-02 00:03:10 | 27.72485 | -82.44311 | 243° | 40km/h | 18954m | 5.2m/s | -63.1°C | 0% | 0hPa | 0V | 00:00:00 | 00:00:00 | 00:00:00 | |
| ARGUS2 | 2026-09-02 00:02:42 | 27.72526 | -82.44149 | 235° | 13km/h | 18854m | 8.5m/s | -62.6°C | 0% | 0hPa | 0V | 00:00:00 | 00:00:00 | 00:00:00 | |
| ARGUS2 | 2026-09-02 00:02:20 | 27.72617 | -82.43983 | 241° | 49km/h | 18753m | 5.2m/s | -63.7°C | 0% | 0hPa | 0V | 00:00:00 | 00:00:00 | 00:00:00 | |
| ARGUS2 | 2026-09-02 00:02:00 | 27.72712 | -82.43860 | 215° | 18km/h | 18654m | 5.3m/s | -65.4°C | 0% | 0hPa | 0V | 00:00:00 | 00:00:00 | 00:00:00 | |
| ARGUS2 | 2026-09-02 00:01:41 | 27.72749 | -82.43780 | 241° | 11km/h | 18559m | 6.1m/s | -65.8°C | 0% | 0hPa | 0V | 00:00:00 | 00:00:00 | 00:00:00 | |
| ARGUS2 | 2026-09-02 00:01:17 | 27.72775 | -82.43678 | 247° | 35km/h | 18443m | 6.3m/s | -66.3°C | 0% | 0hPa | 0V | 00:00:00 | 00:00:00 | 00:00:00 | |
| ARGUS2 | 2026-09-02 00:00:51 | 27.72831 | -82.43544 | 247° | 24km/h | 18333m | 3.7m/s | -67.4°C | 0% | 0hPa | 0V | 00:00:00 | 00:00:00 | 00:00:00 | |
| ARGUS2 | 2026-09-02 00:00:35 | 27.72934 | -82.43414 | 215° | 35km/h | 18224m | 3.9m/s | -68.5°C | 0% | 0hPa | 0V | 00:00:00 | 00:00:00 | 00:00:00 | |
| ARGUS2 | 2026-09-02 00:00:14 | 27.73012 | -82.43341 | 191° | 29km/h | 18124m | 7.4m/s | -68.4°C | 0% | 0hPa | 0V | 00:00:00 | 00:00:00 | 00:00:00 | |
| ARGUS2 | 2026-09-01 23:59:50 | 27.73068 | -82.43255 | 253° | 31km/h | 18023m | 5.1m/s | -68.0°C | 0% | 0hPa | 0V | 00:00:00 | 00:00:00 | 00:00:00 | |
| ARGUS2 | 2026-09-01 23:59:29 | 27.73107 | -82.43162 | 266° | 15km/h | 17934m | 4.4m/s | -68.0°C | 0% | 0hPa | 0V | 00:00:00 | 00:00:00 | 00:00:00 | |
| ARGUS2 | 2026-09-01 23:59:09 | 27.73156 | -82.43082 | 216° | 27km/h | 17849m | 4.1m/s | -68.2°C | 0% | 0hPa | 0V | 00:00:00 | 00:00:00 | 00:00:00 | |
| ARGUS2 | 2026-09-01 23:58:48 | 27.73251 | -82.43031 | 193° | 29km/h | 17771m | 4.9m/s | -68.5°C | 0% | 0hPa | 0V | 00:00:00 | 00:00:00 | 00:00:00 | |
| ARGUS2 | 2026-09-01 23:58:28 | 27.73351 | -82.42963 | 226° | 15km/h | 17686m | 4.0m/s | -68.3°C | 0% | 0hPa | 0V | 00:00:00 | 00:00:00 | 00:00:00 | |
| ARGUS2 | 2026-09-01 23:58:07 | 27.73447 | -82.42869 | 206° | 37km/h | 17610m | 4.8m/s | -68.0°C | 0% | 0hPa | 0V | 00:00:00 | 00:00:00 | 00:00:00 | |
| ARGUS2 | 2026-09-01 23:57:47 | 27.73608 | -82.42762 | 198° | 37km/h | 17526m | 3.4m/s | -68.2°C | 0% | 0hPa | 0V | 00:00:00 | 00:00:00 | 00:00:00 | |
| ARGUS2 | 2026-09-01 23:57:25 | 27.73755 | -82.42666 | 212° | 27km/h | 17437m | 4.5m/s | -67.8°C | 0% | 0hPa | 0V | 00:00:00 | 00:00:00 | 00:00:00 | |
| ARGUS2 | 2026-09-01 23:57:05 | 27.73866 | -82.42591 | 220° | 31km/h | 17350m | 3.8m/s | -67.4°C | 0% | 0hPa | 0V | 00:00:00 | 00:00:00 | 00:00:00 | |
| ARGUS2 | 2026-09-01 23:56:44 | 27.73971 | -82.42539 | 169° | 24km/h | 17249m | 6.1m/s | -66.7°C | 0% | 0hPa | 0V | 00:00:00 | 00:00:00 | 00:00:00 | |
| ARGUS2 | 2026-09-01 23:56:24 | 27.74054 | -82.42503 | 245° | 18km/h | 17151m | 4.4m/s | -66.3°C | 0% | 0hPa | 0V | 00:00:00 | 00:00:00 | 00:00:00 | |
| ARGUS2 | 2026-09-01 23:56:03 | 27.74100 | -82.42496 | 195° | 5km/h | 17043m | 6.4m/s | -66.8°C | 0% | 0hPa | 0V | 00:00:00 | 00:00:00 | 00:00:00 | |
| ARGUS2 | 2026-09-01 23:55:43 | 27.74125 | -82.42484 | 163° | 15km/h | 16938m | 5.0m/s | -66.8°C | 0% | 0hPa | 0V | 00:00:00 | 00:00:00 | 00:00:00 | |
| ARGUS2 | 2026-09-01 23:55:23 | 27.74154 | -82.42467 | 197° | 13km/h | 16833m | 5.5m/s | -66.3°C | 0% | 0hPa | 0V | 00:00:00 | 00:00:00 | 00:00:00 | |
| ARGUS2 | 2026-09-01 23:55:02 | 27.74182 | -82.42439 | 239° | 18km/h | 16734m | 4.0m/s | -65.8°C | 0% | 0hPa | 0V | 00:00:00 | 00:00:00 | 00:00:00 | |
| ARGUS2 | 2026-09-01 23:54:42 | 27.74227 | -82.42390 | 239° | 15km/h | 16643m | 5.1m/s | -65.2°C | 0% | 0hPa | 0V | 00:00:00 | 00:00:00 | 00:00:00 | |
| ARGUS2 | 2026-09-01 23:54:21 | 27.74256 | -82.42320 | 293° | 24km/h | 16558m | 5.2m/s | -65.2°C | 0% | 0hPa | 0V | 00:00:00 | 00:00:00 | 00:00:00 | |
| ARGUS2 | 2026-09-01 23:54:00 | 27.74236 | -82.42240 | 298° | 13km/h | 16471m | 3.9m/s | -64.9°C | 0% | 0hPa | 0V | 00:00:00 | 00:00:00 | 00:00:00 | |
| ARGUS2 | 2026-09-01 23:53:40 | 27.74199 | -82.42172 | 315° | 24km/h | 16394m | 4.0m/s | -65.2°C | 0% | 0hPa | 0V | 00:00:00 | 00:00:00 | 00:00:00 | |
| ARGUS2 | 2026-09-01 23:53:20 | 27.74162 | -82.42046 | 281° | 22km/h | 16314m | 3.5m/s | -66.5°C | 0% | 0hPa | 0V | 00:00:00 | 00:00:00 | 00:00:00 | |
| ARGUS2 | 2026-09-01 23:52:58 | 27.74119 | -82.41958 | 247° | 16km/h | 16232m | 4.4m/s | -67.4°C | 0% | 0hPa | 0V | 00:00:00 | 00:00:00 | 00:00:00 | |
| ARGUS2 | 2026-09-01 23:52:38 | 27.74123 | -82.41867 | 325° | 7km/h | 16133m | 3.5m/s | -70.1°C | 0% | 0hPa | 0V | 00:00:00 | 00:00:00 | 00:00:00 | |
| ARGUS2 | 2026-09-01 23:52:17 | 27.74104 | -82.41869 | 357° | 16km/h | 16038m | 4.4m/s | -70.0°C | 0% | 0hPa | 0V | 00:00:00 | 00:00:00 | 00:00:00 | |
| ARGUS2 | 2026-09-01 23:51:57 | 27.74101 | -82.41892 | 150° | 11km/h | 15943m | 4.7m/s | -69.9°C | 0% | 0hPa | 0V | 00:00:00 | 00:00:00 | 00:00:00 | |
| ARGUS2 | 2026-09-01 23:51:37 | 27.74128 | -82.41908 | 112° | 4km/h | 15846m | 4.5m/s | -69.7°C | 0% | 0hPa | 0V | 00:00:00 | 00:00:00 | 00:00:00 | |
| ARGUS2 | 2026-09-01 23:51:16 | 27.74163 | -82.41939 | 197° | 16km/h | 15757m | 3.7m/s | -69.0°C | 0% | 0hPa | 0V | 00:00:00 | 00:00:00 | 00:00:00 | |
| ARGUS2 | 2026-09-01 23:50:55 | 27.74212 | -82.41966 | 134° | 9km/h | 15669m | 4.1m/s | -68.3°C | 0% | 0hPa | 0V | 00:00:00 | 00:00:00 | 00:00:00 | |
| ARGUS2 | 2026-09-01 23:50:35 | 27.74245 | -82.42004 | 150° | 22km/h | 15594m | 4.2m/s | -67.9°C | 0% | 0hPa | 0V | 00:00:00 | 00:00:00 | 00:00:00 | |
| ARGUS2 | 2026-09-01 23:50:14 | 27.74272 | -82.42060 | 96° | 20km/h | 15514m | 3.1m/s | -67.9°C | 0% | 0hPa | 0V | 00:00:00 | 00:00:00 | 00:00:00 | |
| ARGUS2 | 2026-09-01 23:49:54 | 27.74251 | -82.42095 | 6° | 9km/h | 15438m | 5.7m/s | -67.9°C | 0% | 0hPa | 0V | 00:00:00 | 00:00:00 | 00:00:00 | |
| ARGUS2 | 2026-09-01 23:49:34 | 27.74191 | -82.42087 | 305° | 22km/h | 15352m | 3.6m/s | -70.3°C | 0% | 0hPa | 0V | 00:00:00 | 00:00:00 | 00:00:00 | |
| ARGUS2 | 2026-09-01 23:49:13 | 27.74145 | -82.41999 | 187° | 20km/h | 15274m | 1.6m/s | -71.7°C | 0% | 0hPa | 0V | 00:00:00 | 00:00:00 | 00:00:00 | |
| ARGUS2 | 2026-09-01 23:48:53 | 27.74058 | -82.41995 | 17° | 15km/h | 15176m | 3.9m/s | -72.5°C | 0% | 0hPa | 0V | 00:00:00 | 00:00:00 | 00:00:00 | |
| ARGUS2 | 2026-09-01 23:48:32 | 27.73948 | -82.41995 | 342° | 33km/h | 15092m | 3.6m/s | -72.0°C | 0% | 0hPa | 0V | 00:00:00 | 00:00:00 | 00:00:00 | |
| ARGUS2 | 2026-09-01 23:48:12 | 27.73805 | -82.41966 | 326° | 35km/h | 14993m | 7.1m/s | -71.6°C | 0% | 0hPa | 0V | 00:00:00 | 00:00:00 | 00:00:00 | |
| ARGUS2 | 2026-09-01 23:47:50 | 27.73648 | -82.41918 | 9° | 26km/h | 14876m | 4.4m/s | -71.1°C | 0% | 0hPa | 0V | 00:00:00 | 00:00:00 | 00:00:00 | |
| ARGUS2 | 2026-09-01 23:47:30 | 27.73475 | -82.41879 | 5° | 22km/h | 14749m | 6.9m/s | -70.4°C | 0% | 0hPa | 0V | 00:00:00 | 00:00:00 | 00:00:00 | |
| ARGUS2 | 2026-09-01 23:47:13 | 27.73306 | -82.41852 | 20° | 53km/h | 14625m | 6.1m/s | -69.7°C | 0% | 0hPa | 0V | 00:00:00 | 00:00:00 | 00:00:00 | |
| ARGUS2 | 2026-09-01 23:46:49 | 27.73157 | -82.41836 | 25° | 33km/h | 14497m | 4.6m/s | -68.5°C | 0% | 0hPa | 0V | 00:00:00 | 00:00:00 | 00:00:00 | |
| ARGUS2 | 2026-09-01 23:46:28 | 27.73005 | -82.41808 | 326° | 46km/h | 14380m | 7.9m/s | -67.5°C | 0% | 0hPa | 0V | 00:00:00 | 00:00:00 | 00:00:00 | |
| ARGUS2 | 2026-09-01 23:46:08 | 27.72828 | -82.41808 | 341° | 11km/h | 14256m | 8.1m/s | -66.7°C | 0% | 0hPa | 0V | 00:00:00 | 00:00:00 | 00:00:00 | |
| ARGUS2 | 2026-09-01 23:45:47 | 27.72662 | -82.41833 | 352° | 31km/h | 14143m | 3.6m/s | -65.7°C | 0% | 0hPa | 0V | 00:00:00 | 00:00:00 | 00:00:00 | |
| ARGUS2 | 2026-09-01 23:45:27 | 27.72502 | -82.41865 | 18° | 49km/h | 14047m | 5.3m/s | -64.9°C | 0% | 0hPa | 0V | 00:00:00 | 00:00:00 | 00:00:00 | |
| ARGUS2 | 2026-09-01 23:45:07 | 27.72321 | -82.41894 | 21° | 27km/h | 13956m | 6.6m/s | -64.1°C | 0% | 0hPa | 0V | 00:00:00 | 00:00:00 | 00:00:00 | |
| ARGUS2 | 2026-09-01 23:44:46 | 27.72151 | -82.41888 | 353° | 35km/h | 13852m | 4.8m/s | -63.2°C | 0% | 0hPa | 0V | 00:00:00 | 00:00:00 | 00:00:00 | |
| ARGUS2 | 2026-09-01 23:44:26 | 27.71964 | -82.41885 | 346° | 44km/h | 13760m | 5.3m/s | -62.4°C | 0% | 0hPa | 0V | 00:00:00 | 00:00:00 | 00:00:00 | |
| ARGUS2 | 2026-09-01 23:44:05 | 27.71789 | -82.41870 | 10° | 40km/h | 13675m | 4.0m/s | -61.6°C | 0% | 0hPa | 0V | 00:00:00 | 00:00:00 | 00:00:00 | |
| ARGUS2 | 2026-09-01 23:43:45 | 27.71605 | -82.41842 | 353° | 27km/h | 13576m | 5.0m/s | -60.8°C | 0% | 0hPa | 0V | 00:00:00 | 00:00:00 | 00:00:00 | |
| ARGUS2 | 2026-09-01 23:43:24 | 27.71418 | -82.41821 | 23° | 35km/h | 13485m | 5.7m/s | -60.1°C | 0% | 0hPa | 0V | 00:00:00 | 00:00:00 | 00:00:00 | |
| ARGUS2 | 2026-09-01 23:43:04 | 27.71228 | -82.41810 | 346° | 35km/h | 13378m | 5.9m/s | -59.3°C | 0% | 0hPa | 0V | 00:00:00 | 00:00:00 | 00:00:00 | |
| ARGUS2 | 2026-09-01 23:42:42 | 27.71049 | -82.41796 | 332° | 46km/h | 13281m | 5.0m/s | -58.5°C | 0% | 0hPa | 0V | 00:00:00 | 00:00:00 | 00:00:00 | |
| ARGUS2 | 2026-09-01 23:42:22 | 27.70870 | -82.41776 | 354° | 49km/h | 13188m | 3.9m/s | -57.7°C | 0% | 0hPa | 0V | 00:00:00 | 00:00:00 | 00:00:00 | |
| ARGUS2 | 2026-09-01 23:42:02 | 27.70681 | -82.41761 | 7° | 37km/h | 13095m | 4.5m/s | -56.9°C | 0% | 0hPa | 0V | 00:00:00 | 00:00:00 | 00:00:00 | |
| ARGUS2 | 2026-09-01 23:41:41 | 27.70508 | -82.41743 | 350° | 40km/h | 13005m | 4.4m/s | -56.3°C | 0% | 0hPa | 0V | 00:00:00 | 00:00:00 | 00:00:00 | |
| ARGUS2 | 2026-09-01 23:41:21 | 27.70316 | -82.41737 | 351° | 38km/h | 12907m | 3.6m/s | -55.4°C | 0% | 0hPa | 0V | 00:00:00 | 00:00:00 | 00:00:00 | |
| ARGUS2 | 2026-09-01 23:41:00 | 27.70135 | -82.41735 | 358° | 53km/h | 12814m | 4.8m/s | -54.7°C | 0% | 0hPa | 0V | 00:00:00 | 00:00:00 | 00:00:00 | |
| ARGUS2 | 2026-09-01 23:40:39 | 27.69941 | -82.41714 | 353° | 37km/h | 12720m | 5.3m/s | -54.0°C | 0% | 0hPa | 0V | 00:00:00 | 00:00:00 | 00:00:00 | |
| ARGUS2 | 2026-09-01 23:40:19 | 27.69753 | -82.41693 | 339° | 22km/h | 12629m | 4.4m/s | -53.2°C | 0% | 0hPa | 0V | 00:00:00 | 00:00:00 | 00:00:00 | |
| ARGUS2 | 2026-09-01 23:39:58 | 27.69557 | -82.41695 | 352° | 42km/h | 12527m | 6.4m/s | -52.3°C | 0% | 0hPa | 0V | 00:00:00 | 00:00:00 | 00:00:00 | |
| ARGUS2 | 2026-09-01 23:39:38 | 27.69393 | -82.41698 | 355° | 44km/h | 12423m | 3.2m/s | -51.5°C | 0% | 0hPa | 0V | 00:00:00 | 00:00:00 | 00:00:00 | |
| ARGUS2 | 2026-09-01 23:39:18 | 27.69228 | -82.41727 | 19° | 47km/h | 12330m | 3.9m/s | -50.7°C | 0% | 0hPa | 0V | 00:00:00 | 00:00:00 | 00:00:00 | |
| ARGUS2 | 2026-09-01 23:38:58 | 27.69076 | -82.41752 | 55° | 33km/h | 12219m | 5.0m/s | -49.7°C | 0% | 0hPa | 0V | 00:00:00 | 00:00:00 | 00:00:00 | |
| ARGUS2 | 2026-09-01 23:38:37 | 27.68942 | -82.41775 | 8° | 35km/h | 12110m | 3.8m/s | -49.1°C | 0% | 0hPa | 0V | 00:00:00 | 00:00:00 | 00:00:00 | |
| ARGUS2 | 2026-09-01 23:38:16 | 27.68809 | -82.41792 | 15° | 35km/h | 12018m | 5.0m/s | -48.4°C | 0% | 0hPa | 0V | 00:00:00 | 00:00:00 | 00:00:00 | |
| ARGUS2 | 2026-09-01 23:37:56 | 27.68693 | -82.41824 | 360° | 44km/h | 11930m | 8.5m/s | -47.7°C | 0% | 0hPa | 0V | 00:00:00 | 00:00:00 | 00:00:00 | |
| ARGUS2 | 2026-09-01 23:37:35 | 27.68570 | -82.41871 | 348° | 31km/h | 11805m | 5.3m/s | -46.6°C | 0% | 0hPa | 0V | 00:00:00 | 00:00:00 | 00:00:00 | |
| ARGUS2 | 2026-09-01 23:37:15 | 27.68483 | -82.41888 | 23° | 27km/h | 11695m | 5.6m/s | -45.6°C | 0% | 0hPa | 0V | 00:00:00 | 00:00:00 | 00:00:00 | |
| ARGUS2 | 2026-09-01 23:36:33 | 27.68333 | -82.42027 | 330° | 15km/h | 11460m | 8.7m/s | -43.7°C | 0% | 0hPa | 0V | 00:00:00 | 00:00:00 | 00:00:00 | |
| ARGUS2 | 2026-09-01 23:36:13 | 27.68311 | -82.42039 | 349° | 13km/h | 11350m | 7.8m/s | -42.7°C | 0% | 0hPa | 0V | 00:00:00 | 00:00:00 | 00:00:00 | |
| ARGUS2 | 2026-09-01 23:35:52 | 27.68271 | -82.42054 | 14° | 33km/h | 11240m | 3.7m/s | -41.7°C | 0% | 0hPa | 0V | 00:00:00 | 00:00:00 | 00:00:00 | |
| ARGUS2 | 2026-09-01 23:35:32 | 27.68234 | -82.42093 | 50° | 9km/h | 11109m | 6.6m/s | -40.6°C | 0% | 0hPa | 0V | 00:00:00 | 00:00:00 | 00:00:00 | |
| ARGUS2 | 2026-09-01 23:35:11 | 27.68184 | -82.42118 | 27° | 27km/h | 10993m | 5.4m/s | -39.7°C | 0% | 0hPa | 0V | 00:00:00 | 00:00:00 | 00:00:00 | |
| ARGUS2 | 2026-09-01 23:34:51 | 27.68118 | -82.42132 | 81° | 15km/h | 10879m | 7.2m/s | -38.7°C | 0% | 0hPa | 0V | 00:00:00 | 00:00:00 | 00:00:00 | |
| ARGUS2 | 2026-09-01 23:34:30 | 27.68060 | -82.42147 | 355° | 29km/h | 10757m | 5.8m/s | -37.9°C | 0% | 0hPa | 0V | 00:00:00 | 00:00:00 | 00:00:00 | |
| ARGUS2 | 2026-09-01 23:34:10 | 27.67993 | -82.42170 | 23° | 18km/h | 10643m | 6.4m/s | -36.9°C | 0% | 0hPa | 0V | 00:00:00 | 00:00:00 | 00:00:00 | |
| ARGUS2 | 2026-09-01 23:33:50 | 27.67940 | -82.42201 | 46° | 16km/h | 10534m | 6.3m/s | -36.0°C | 0% | 0hPa | 0V | 00:00:00 | 00:00:00 | 00:00:00 | |
| ARGUS2 | 2026-09-01 23:33:28 | 27.67883 | -82.42232 | 331° | 11km/h | 10421m | 5.0m/s | -35.2°C | 0% | 0hPa | 0V | 00:00:00 | 00:00:00 | 00:00:00 | |
| ARGUS2 | 2026-09-01 23:33:09 | 27.67827 | -82.42261 | 89° | 22km/h | 10303m | 3.8m/s | -34.2°C | 0% | 0hPa | 0V | 00:00:00 | 00:00:00 | 00:00:00 | |
| ARGUS2 | 2026-09-01 23:32:48 | 27.67772 | -82.42284 | 76° | 27km/h | 10162m | 5.4m/s | -33.1°C | 0% | 0hPa | 0V | 00:00:00 | 00:00:00 | 00:00:00 | |
| ARGUS2 | 2026-09-01 23:32:26 | 27.67726 | -82.42344 | 40° | 35km/h | 10026m | 7.2m/s | -31.8°C | 0% | 0hPa | 0V | 00:00:00 | 00:00:00 | 00:00:00 | |
| ARGUS2 | 2026-09-01 23:32:06 | 27.67692 | -82.42377 | 73° | 20km/h | 9900m | 7.9m/s | -30.9°C | 0% | 0hPa | 0V | 00:00:00 | 00:00:00 | 00:00:00 | |
| ARGUS2 | 2026-09-01 23:31:45 | 27.67651 | -82.42460 | 343° | 4km/h | 9786m | 4.6m/s | -30.3°C | 0% | 0hPa | 0V | 00:00:00 | 00:00:00 | 00:00:00 | |
| ARGUS2 | 2026-09-01 23:31:25 | 27.67624 | -82.42529 | 63° | 33km/h | 9678m | 5.8m/s | -29.6°C | 0% | 0hPa | 0V | 00:00:00 | 00:00:00 | 00:00:00 | |
| ARGUS2 | 2026-09-01 23:31:05 | 27.67612 | -82.42664 | 93° | 27km/h | 9569m | 3.5m/s | -28.9°C | 0% | 0hPa | 0V | 00:00:00 | 00:00:00 | 00:00:00 | |
| ARGUS2 | 2026-09-01 23:30:42 | 27.67545 | -82.42841 | 116° | 20km/h | 9445m | 5.8m/s | -28.4°C | 0% | 0hPa | 0V | 00:00:00 | 00:00:00 | 00:00:00 | |
| ARGUS2 | 2026-09-01 23:30:21 | 27.67473 | -82.42959 | 34° | 15km/h | 9300m | 5.7m/s | -27.3°C | 0% | 0hPa | 0V | 00:00:00 | 00:00:00 | 00:00:00 | |
| ARGUS2 | 2026-09-01 23:30:01 | 27.67444 | -82.43054 | 19° | 27km/h | 9160m | 8.5m/s | -27.4°C | 0% | 0hPa | 0V | 00:00:00 | 00:00:00 | 00:00:00 | |
| ARGUS2 | 2026-09-01 23:29:41 | 27.67415 | -82.43114 | 50° | 15km/h | 9068m | 3.4m/s | -26.8°C | 0% | 0hPa | 0V | 00:00:00 | 00:00:00 | 00:00:00 | |
| ARGUS2 | 2026-09-01 23:29:20 | 27.67359 | -82.43190 | 110° | 15km/h | 8978m | 5.5m/s | -26.3°C | 0% | 0hPa | 0V | 00:00:00 | 00:00:00 | 00:00:00 | |
| ARGUS2 | 2026-09-01 23:29:00 | 27.67317 | -82.43246 | 33° | 18km/h | 8872m | 4.2m/s | -25.4°C | 0% | 0hPa | 0V | 00:00:00 | 00:00:00 | 00:00:00 | |
| ARGUS2 | 2026-09-01 23:28:39 | 27.67273 | -82.43310 | 0° | 0km/h | 8786m | 3.4m/s | -24.7°C | 0% | 0hPa | 0V | 00:00:00 | 00:00:00 | 00:00:00 | |
| ARGUS2 | 2026-09-01 23:28:18 | 27.67196 | -82.43417 | 86° | 31km/h | 8683m | 4.0m/s | -23.8°C | 0% | 0hPa | 0V | 00:00:00 | 00:00:00 | 00:00:00 | |
| ARGUS2 | 2026-09-01 23:27:58 | 27.67179 | -82.43472 | 89° | 20km/h | 8588m | 4.8m/s | -23.3°C | 0% | 0hPa | 0V | 00:00:00 | 00:00:00 | 00:00:00 | |
| ARGUS2 | 2026-09-01 23:27:38 | 27.67125 | -82.43538 | 44° | 11km/h | 8479m | 4.0m/s | -22.8°C | 0% | 0hPa | 0V | 00:00:00 | 00:00:00 | 00:00:00 | |
| ARGUS2 | 2026-09-01 23:27:17 | 27.67100 | -82.43603 | 125° | 26km/h | 8378m | 4.7m/s | -21.5°C | 0% | 0hPa | 0V | 00:00:00 | 00:00:00 | 00:00:00 | |
| ARGUS2 | 2026-09-01 23:26:57 | 27.67040 | -82.43727 | 61° | 27km/h | 8270m | 6.7m/s | -20.8°C | 0% | 0hPa | 0V | 00:00:00 | 00:00:00 | 00:00:00 | |
| ARGUS2 | 2026-09-01 23:26:36 | 27.67017 | -82.43810 | 91° | 33km/h | 8157m | 4.9m/s | -19.9°C | 0% | 0hPa | 0V | 00:00:00 | 00:00:00 | 00:00:00 | |
| ARGUS2 | 2026-09-01 23:26:16 | 27.66956 | -82.43951 | 68° | 26km/h | 8053m | 6.5m/s | -18.9°C | 0% | 0hPa | 0V | 00:00:00 | 00:00:00 | 00:00:00 | |
| ARGUS2 | 2026-09-01 23:25:55 | 27.66911 | -82.44064 | 48° | 29km/h | 7929m | 6.2m/s | -18.1°C | 0% | 0hPa | 0V | 00:00:00 | 00:00:00 | 00:00:00 | |
| ARGUS2 | 2026-09-01 23:25:30 | 27.66813 | -82.44178 | 17° | 26km/h | 7812m | 5.9m/s | -17.5°C | 0% | 0hPa | 0V | 00:00:00 | 00:00:00 | 00:00:00 | |
| ARGUS2 | 2026-09-01 23:25:09 | 27.66739 | -82.44256 | 26° | 24km/h | 7712m | 4.3m/s | -16.8°C | 0% | 0hPa | 0V | 00:00:00 | 00:00:00 | 00:00:00 | |
| ARGUS2 | 2026-09-01 23:24:48 | 27.66693 | -82.44285 | 10° | 24km/h | 7605m | 6.1m/s | -16.0°C | 0% | 0hPa | 0V | 00:00:00 | 00:00:00 | 00:00:00 | |
| ARGUS2 | 2026-09-01 23:24:18 | 27.66616 | -82.44382 | 86° | 22km/h | 7436m | 6.5m/s | -14.7°C | 0% | 0hPa | 0V | 00:00:00 | 00:00:00 | 00:00:00 | |
| ARGUS2 | 2026-09-01 23:23:02 | 27.66469 | -82.44723 | 122° | 33km/h | 7027m | 3.5m/s | -12.7°C | 0% | 0hPa | 0V | 00:00:00 | 00:00:00 | 00:00:00 | |
| ARGUS2 | 2026-09-01 23:22:36 | 27.66442 | -82.44811 | 29° | 16km/h | 6894m | 4.7m/s | -12.1°C | 0% | 0hPa | 0V | 00:00:00 | 00:00:00 | 00:00:00 | |
| ARGUS2 | 2026-09-01 23:22:15 | 27.66418 | -82.44893 | 29° | 16km/h | 6781m | 4.6m/s | -11.6°C | 0% | 0hPa | 0V | 00:00:00 | 00:00:00 | 00:00:00 | |
| ARGUS2 | 2026-09-01 23:21:51 | 27.66426 | -82.44930 | 103° | 18km/h | 6658m | 4.3m/s | -11.6°C | 0% | 0hPa | 0V | 00:00:00 | 00:00:00 | 00:00:00 | |
| ARGUS2 | 2026-09-01 23:21:24 | 27.66411 | -82.44987 | 176° | 13km/h | 6512m | 5.6m/s | -10.8°C | 0% | 0hPa | 0V | 00:00:00 | 00:00:00 | 00:00:00 | |
| ARGUS2 | 2026-09-01 23:20:36 | 27.66463 | -82.45036 | 310° | 15km/h | 6238m | 5.6m/s | -8.4°C | 0% | 0hPa | 0V | 00:00:00 | 00:00:00 | 00:00:00 | |
| ARGUS2 | 2026-09-01 23:20:08 | 27.66460 | -82.44979 | 268° | 11km/h | 6108m | 6.2m/s | -7.9°C | 0% | 0hPa | 0V | 00:00:00 | 00:00:00 | 00:00:00 | |
| ARGUS2 | 2026-09-01 23:19:46 | 27.66464 | -82.44918 | 177° | 18km/h | 5990m | 6.7m/s | -7.1°C | 0% | 0hPa | 0V | 00:00:00 | 00:00:00 | 00:00:00 | |
| ARGUS2 | 2026-09-01 23:19:25 | 27.66467 | -82.44839 | 231° | 26km/h | 5867m | 4.5m/s | -6.5°C | 0% | 0hPa | 0V | 00:00:00 | 00:00:00 | 00:00:00 | |
| ARGUS2 | 2026-09-01 23:19:04 | 27.66488 | -82.44783 | 227° | 26km/h | 5762m | 5.2m/s | -6.0°C | 0% | 0hPa | 0V | 00:00:00 | 00:00:00 | 00:00:00 | |
| ARGUS2 | 2026-09-01 23:18:44 | 27.66525 | -82.44716 | 224° | 22km/h | 5656m | 5.6m/s | -5.5°C | 0% | 0hPa | 0V | 00:00:00 | 00:00:00 | 00:00:00 | |
| ARGUS2 | 2026-09-01 23:18:23 | 27.66558 | -82.44656 | 216° | 16km/h | 5543m | 5.8m/s | -5.1°C | 0% | 0hPa | 0V | 00:00:00 | 00:00:00 | 00:00:00 | |
| ARGUS2 | 2026-09-01 23:18:03 | 27.66594 | -82.44584 | 214° | 31km/h | 5427m | 4.6m/s | -4.4°C | 0% | 0hPa | 0V | 00:00:00 | 00:00:00 | 00:00:00 | |
| ARGUS2 | 2026-09-01 23:17:42 | 27.66632 | -82.44508 | 203° | 22km/h | 5312m | 4.5m/s | -3.7°C | 0% | 0hPa | 0V | 00:00:00 | 00:00:00 | 00:00:00 | |
| ARGUS2 | 2026-09-01 23:17:21 | 27.66639 | -82.44420 | 261° | 31km/h | 5194m | 4.2m/s | -3.0°C | 0% | 0hPa | 0V | 00:00:00 | 00:00:00 | 00:00:00 | |
| ARGUS2 | 2026-09-01 23:17:01 | 27.66670 | -82.44372 | 180° | 13km/h | 5086m | 4.6m/s | -2.6°C | 0% | 0hPa | 0V | 00:00:00 | 00:00:00 | 00:00:00 | |
| ARGUS2 | 2026-09-01 23:16:38 | 27.66690 | -82.44301 | 224° | 13km/h | 4963m | 4.5m/s | -1.8°C | 0% | 0hPa | 0V | 00:00:00 | 00:00:00 | 00:00:00 | |
| ARGUS2 | 2026-09-01 23:13:32 | 27.67124 | -82.43297 | 203° | 5km/h | 3891m | 6.2m/s | 4.5°C | 0% | 0hPa | 0V | 00:00:00 | 00:00:00 | 00:00:00 | |
| ARGUS2 | 2026-09-01 23:12:18 | 27.67405 | -82.42887 | 239° | 40km/h | 3465m | 5.3m/s | 7.6°C | 0% | 0hPa | 0V | 00:00:00 | 00:00:00 | 00:00:00 | |
| ARGUS2 | 2026-09-01 23:11:57 | 27.67478 | -82.42790 | 227° | 37km/h | 3351m | 4.8m/s | 8.6°C | 0% | 0hPa | 0V | 00:00:00 | 00:00:00 | 00:00:00 | |
| ARGUS2 | 2026-09-01 23:11:36 | 27.67591 | -82.42680 | 205° | 18km/h | 3235m | 5.5m/s | 8.4°C | 0% | 0hPa | 0V | 00:00:00 | 00:00:00 | 00:00:00 | |
| ARGUS2 | 2026-09-01 23:11:15 | 27.67749 | -82.42567 | 216° | 49km/h | 3116m | 6.7m/s | 8.8°C | 0% | 0hPa | 0V | 00:00:00 | 00:00:00 | 00:00:00 | |
| ARGUS2 | 2026-09-01 23:07:19 | 27.69316 | -82.41740 | 172° | 20km/h | 1886m | 4.9m/s | 16.3°C | 0% | 0hPa | 0V | 00:00:00 | 00:00:00 | 00:00:00 | |
| ARGUS2 | 2026-09-01 23:06:35 | 27.69549 | -82.41599 | 208° | 40km/h | 1673m | 4.0m/s | 0°C | 0% | 0hPa | 0V | 00:00:00 | 00:00:00 | 00:00:00 | |
| ARGUS2 | 2026-09-01 23:05:09 | 27.69842 | -82.41259 | 0° | 0km/h | 1259m | 5.6m/s | 19.6°C | 0% | 0hPa | 0V | 00:00:00 | 00:00:00 | 00:00:00 |